Главная страница
METAR-TAF:

METAR-TAF

Аэропорты :

Намсус, Норвегия

широта: 64-28N, долгота: 011-35E, высота над уровнем моря: 0 м

Текущие метеонаблюдения

Эта сводка был подготовлена 22 часа и 6 минут назад, в 10:20 UTC
Ветер 12 Узел от восточный
Температура 2°C
Влажность 69%
Давление 1016 hPa
Видимость 10 км и более
Нет облачности ниже 1500 м, и нет кучево-дождевой облачности

METAR: ENNM 161020Z 08012KT CAVOK 02/M03 Q1016

Время: 09:26 (08:26 UTC)


TAF: отсутствует

Метеонаблюдения и прогнозы для более 4000 аэропортов (сводки METAR и TAF).

Имеющиеся станции представлены на карте желтыми и красными точками.

Чтобы увидеть название станции, наведите на нее мышь.

Затем щелкните, чтобы увидеть метеонаблюдения и метеопрогнозы.

Управление картой: чтобы увеличить масштаб, щелкните зеленые кнопки с черным крестиком; чтобы уменьшить масштаб, щелкните зеленую кнопку с тире; для просмотра соседних карт щелкайте зеленые стрелки.


METAR-TAF: